Time;durP1;ratioP1;P1;durP2;ratioP2;P2;SDS_P1;SDS_P2;PMS_P1;PMS_P2;Temp;Humidity;BMP_temperature;BMP_pressure;BME280_temperature;BME280_humidity;BME280_pressure;Samples;Min_cycle;Max_cycle;Signal;HPM_P1;HPM_P2
2022/08/28 00:02:09;;;;;;;16.70;12.95;;;21.40;99.90;;;;;;7393219;19;20151;-76
2022/08/28 00:04:35;;;;;;;15.75;11.43;;;21.40;99.90;;;;;;7393170;19;20151;-76
2022/08/28 00:07:02;;;;;;;13.85;11.75;;;21.40;99.90;;;;;;7390776;19;20596;-76
2022/08/28 00:09:28;;;;;;;17.25;11.60;;;21.50;99.90;;;;;;7391193;19;20474;-76
2022/08/28 00:11:54;;;;;;;14.55;12.00;;;21.40;99.90;;;;;;7395161;19;20168;-75
2022/08/28 00:14:20;;;;;;;15.35;11.98;;;21.50;99.90;;;;;;7392975;19;20151;-75
2022/08/28 00:16:47;;;;;;;14.45;11.18;;;21.50;99.90;;;;;;7395269;19;20134;-76
2022/08/28 00:19:14;;;;;;;14.40;12.07;;;21.50;99.90;;;;;;7391563;19;20599;-75
2022/08/28 00:21:40;;;;;;;12.98;10.60;;;21.40;99.90;;;;;;7391887;19;20205;-75
2022/08/28 00:24:06;;;;;;;13.32;11.25;;;21.40;99.90;;;;;;7391494;19;20150;-75
2022/08/28 00:29:16;;;;;;;14.20;10.85;;;21.40;99.90;;;;;;7390738;19;20146;-76
2022/08/28 00:31:42;;;;;;;13.85;10.77;;;21.40;99.90;;;;;;7392847;19;20135;-76
2022/08/28 00:34:09;;;;;;;12.25;9.98;;;21.40;99.90;;;;;;7393928;19;20134;-75
2022/08/28 00:36:36;;;;;;;10.85;9.75;;;21.50;99.90;;;;;;7393947;19;20525;-75
2022/08/28 00:39:04;;;;;;;17.25;11.27;;;21.40;99.90;;;;;;7391277;19;20163;-76
2022/08/28 00:41:31;;;;;;;11.82;10.20;;;21.40;99.90;;;;;;7393218;19;20126;-75
2022/08/28 00:44:14;;;;;;;13.65;10.75;;;21.30;99.90;;;;;;7392014;19;20154;-75
2022/08/28 00:46:42;;;;;;;13.63;10.23;;;21.40;99.90;;;;;;7394021;19;20516;-75
2022/08/28 00:49:10;;;;;;;13.90;10.90;;;21.40;99.90;;;;;;7392699;19;20138;-76
2022/08/28 00:54:23;;;;;;;14.70;11.75;;;21.30;99.90;;;;;;7391738;19;20968;-76
2022/08/28 00:56:52;;;;;;;13.23;11.27;;;21.30;99.90;;;;;;7393907;19;20668;-75
2022/08/28 00:59:22;;;;;;;13.02;9.80;;;21.20;99.90;;;;;;7388947;19;20726;-75
2022/08/28 01:01:49;;;;;;;12.43;10.32;;;21.30;99.90;;;;;;7390591;19;20147;-75
2022/08/28 01:04:17;;;;;;;11.70;10.02;;;21.20;99.90;;;;;;7391406;19;20142;-75
2022/08/28 01:06:52;;;;;;;14.50;10.40;;;21.30;99.90;;;;;;7387018;19;20147;-75
2022/08/28 01:09:30;;;;;;;11.55;10.00;;;21.30;99.90;;;;;;7388281;19;20170;-75
2022/08/28 01:12:01;;;;;;;14.77;10.27;;;21.30;99.90;;;;;;7391308;19;20146;-75
2022/08/28 01:14:30;;;;;;;13.77;10.02;;;21.10;99.90;;;;;;7387821;19;20244;-76
2022/08/28 01:16:56;;;;;;;12.65;10.45;;;21.10;99.90;;;;;;7390109;19;20240;-76
2022/08/28 01:19:38;;;;;;;14.60;10.40;;;21.20;99.90;;;;;;7391452;19;20603;-75
2022/08/28 01:22:19;;;;;;;13.65;10.75;;;21.30;99.90;;;;;;7390916;19;20205;-75
2022/08/28 01:24:46;;;;;;;13.25;9.77;;;21.30;99.90;;;;;;7389498;19;20138;-76
2022/08/28 01:27:12;;;;;;;12.60;10.98;;;21.30;99.90;;;;;;7390653;19;20438;-76
2022/08/28 01:29:39;;;;;;;13.32;10.68;;;21.00;99.90;;;;;;7390395;19;20659;-76
2022/08/28 01:32:05;;;;;;;14.20;10.85;;;20.90;99.90;;;;;;7391861;19;20154;-76
2022/08/28 01:34:31;;;;;;;11.55;10.00;;;20.80;99.90;;;;;;7392786;19;20242;-76
2022/08/28 01:36:57;;;;;;;13.45;11.05;;;21.00;99.90;;;;;;7390283;19;20146;-76
2022/08/28 01:39:25;;;;;;;14.80;10.25;;;21.00;99.90;;;;;;7390492;19;20146;-76
2022/08/28 01:41:52;;;;;;;13.25;10.55;;;21.10;99.90;;;;;;7388258;19;20149;-75
2022/08/28 01:44:23;;;;;;;17.45;10.80;;;21.10;99.90;;;;;;7389878;19;20515;-75
2022/08/28 01:46:51;;;;;;;13.95;10.93;;;21.00;99.90;;;;;;7390062;19;20145;-74
2022/08/28 01:49:18;;;;;;;16.13;11.80;;;21.10;99.90;;;;;;7394132;19;20158;-76
2022/08/28 01:51:43;;;;;;;11.40;10.20;;;21.10;99.90;;;;;;7392363;19;20618;-76
2022/08/28 01:54:10;;;;;;;15.82;10.75;;;21.20;99.90;;;;;;7386456;19;20690;-75
2022/08/28 01:56:37;;;;;;;14.55;11.23;;;21.10;99.90;;;;;;7394498;19;20163;-76
2022/08/28 01:59:06;;;;;;;14.60;11.32;;;21.10;99.90;;;;;;7392848;19;20161;-76
2022/08/28 02:01:32;;;;;;;16.17;11.35;;;21.10;99.90;;;;;;7393366;19;20131;-76
2022/08/28 02:04:18;;;;;;;13.50;11.13;;;21.10;99.90;;;;;;7392635;19;20142;-75
2022/08/28 02:07:04;;;;;;;14.07;11.07;;;21.10;99.90;;;;;;7389139;19;20583;-74
2022/08/28 02:09:49;;;;;;;12.35;10.25;;;21.10;99.90;;;;;;7391488;19;20146;-75
2022/08/28 02:12:35;;;;;;;13.77;11.23;;;21.20;99.90;;;;;;7387492;19;20138;-75
2022/08/28 02:15:04;;;;;;;13.48;10.73;;;21.30;99.90;;;;;;7390063;19;20608;-76
2022/08/28 02:17:31;;;;;;;13.18;10.48;;;21.20;99.90;;;;;;7390511;19;20143;-74
2022/08/28 02:19:58;;;;;;;13.23;10.82;;;21.20;99.90;;;;;;7387973;19;20142;-75
2022/08/28 02:22:25;;;;;;;14.52;11.85;;;21.20;99.90;;;;;;7389400;19;20150;-74
2022/08/28 02:24:52;;;;;;;15.20;11.13;;;21.20;99.90;;;;;;7392109;19;20153;-75
2022/08/28 02:27:18;;;;;;;14.25;11.50;;;21.10;99.90;;;;;;7391348;19;20151;-76
2022/08/28 02:29:44;;;;;;;13.90;11.07;;;21.10;99.90;;;;;;7389903;19;20343;-75
2022/08/28 02:32:11;;;;;;;15.18;11.60;;;21.10;99.90;;;;;;7389358;19;20614;-76
2022/08/28 02:34:38;;;;;;;16.10;11.13;;;21.00;99.90;;;;;;7388753;19;20158;-76
2022/08/28 02:37:07;;;;;;;17.30;12.02;;;21.00;99.90;;;;;;7389320;19;20153;-74
2022/08/28 02:39:33;;;;;;;12.90;10.63;;;20.90;99.90;;;;;;7388005;19;20254;-74
2022/08/28 02:42:02;;;;;;;13.88;11.60;;;21.00;99.90;;;;;;7390904;19;20143;-75
2022/08/28 02:44:29;;;;;;;13.52;10.93;;;21.10;99.90;;;;;;7387804;19;20665;-75
2022/08/28 02:46:56;;;;;;;16.02;11.80;;;21.10;99.90;;;;;;7390054;19;20147;-75
2022/08/28 02:49:23;;;;;;;15.55;12.05;;;21.10;99.90;;;;;;7390422;19;20608;-75
2022/08/28 02:51:54;;;;;;;14.20;11.65;;;21.10;99.90;;;;;;7392094;19;20150;-75
2022/08/28 02:54:21;;;;;;;16.80;12.10;;;21.10;99.90;;;;;;7388958;19;20158;-75
2022/08/28 02:56:48;;;;;;;13.77;11.80;;;21.10;99.90;;;;;;7387551;19;20628;-76
2022/08/28 02:59:37;;;;;;;17.02;13.07;;;21.10;99.90;;;;;;7388644;19;20185;-75
2022/08/28 03:02:05;;;;;;;15.40;12.00;;;21.00;99.90;;;;;;7388908;19;20153;-75
2022/08/28 03:04:51;;;;;;;14.05;11.25;;;21.00;99.90;;;;;;7384221;19;20130;-75
2022/08/28 03:07:37;;;;;;;17.63;11.95;;;21.00;99.90;;;;;;7386679;19;20565;-75
2022/08/28 03:10:23;;;;;;;14.85;11.80;;;21.00;99.90;;;;;;7385336;19;20225;-75
2022/08/28 03:13:10;;;;;;;16.65;12.95;;;20.90;99.90;;;;;;7386520;19;20202;-75
2022/08/28 03:15:56;;;;;;;15.55;11.88;;;21.00;99.90;;;;;;7388843;19;20158;-75
2022/08/28 03:18:42;;;;;;;15.48;12.20;;;21.00;99.90;;;;;;7389040;19;20146;-75
2022/08/28 03:21:27;;;;;;;18.27;12.43;;;21.00;99.90;;;;;;7395192;19;20146;-76
2022/08/28 03:24:13;;;;;;;13.90;10.68;;;21.10;99.90;;;;;;7398014;19;20142;-76
2022/08/28 03:27:00;;;;;;;13.35;11.10;;;21.00;99.90;;;;;;7394244;19;20146;-75
2022/08/28 03:29:46;;;;;;;15.98;11.95;;;21.00;99.90;;;;;;7392910;19;20561;-76
2022/08/28 03:32:31;;;;;;;15.65;12.27;;;21.00;99.90;;;;;;7393653;19;20210;-75
2022/08/28 03:35:17;;;;;;;15.20;11.48;;;21.10;99.90;;;;;;7393631;19;20153;-76
2022/08/28 03:38:04;;;;;;;17.13;13.20;;;21.10;99.90;;;;;;7394675;19;20150;-76
2022/08/28 03:40:50;;;;;;;20.13;13.43;;;21.10;99.90;;;;;;7396526;19;20164;-76
2022/08/28 03:43:36;;;;;;;15.85;11.25;;;21.10;99.90;;;;;;7394529;19;20233;-76
2022/08/28 03:46:23;;;;;;;14.85;11.70;;;21.10;99.90;;;;;;7394832;19;20172;-76
2022/08/28 03:49:09;;;;;;;15.27;12.32;;;21.00;99.90;;;;;;7395373;19;20251;-76
2022/08/28 03:51:55;;;;;;;15.80;11.73;;;21.00;99.90;;;;;;7397972;19;20151;-76
2022/08/28 03:54:41;;;;;;;14.68;11.55;;;21.00;99.90;;;;;;7396347;19;20130;-76
2022/08/28 03:57:26;;;;;;;16.48;11.75;;;20.90;99.90;;;;;;7395447;19;20858;-76
2022/08/28 04:00:13;;;;;;;15.52;12.35;;;20.90;99.90;;;;;;7390104;19;20222;-75
2022/08/28 04:02:59;;;;;;;15.07;12.25;;;20.90;99.90;;;;;;7394299;19;20142;-76
2022/08/28 04:05:45;;;;;;;15.20;11.18;;;20.90;99.90;;;;;;7393872;19;20541;-75
2022/08/28 04:08:31;;;;;;;12.85;10.68;;;20.90;99.90;;;;;;7396451;19;20175;-76
2022/08/28 04:11:17;;;;;;;18.27;11.70;;;20.90;99.90;;;;;;7394675;19;20146;-77
2022/08/28 04:14:03;;;;;;;15.27;11.05;;;20.90;99.90;;;;;;7394160;19;20138;-75
2022/08/28 04:16:49;;;;;;;16.80;12.15;;;20.90;99.90;;;;;;7393837;19;20142;-76
2022/08/28 04:19:35;;;;;;;16.90;11.57;;;21.00;99.90;;;;;;7391060;19;20150;-76
2022/08/28 04:22:20;;;;;;;12.45;10.70;;;20.90;99.90;;;;;;7395510;19;20498;-76
2022/08/28 04:25:07;;;;;;;12.65;10.40;;;20.90;99.90;;;;;;7392674;19;20142;-75
2022/08/28 04:27:53;;;;;;;14.02;10.05;;;20.90;99.90;;;;;;7393267;19;20157;-76
2022/08/28 04:30:40;;;;;;;17.30;11.82;;;21.00;99.90;;;;;;7393658;19;20150;-76
2022/08/28 04:33:27;;;;;;;12.20;10.77;;;21.00;99.90;;;;;;7393638;19;20149;-76
2022/08/28 04:36:15;;;;;;;14.73;10.45;;;21.00;99.90;;;;;;7392317;19;20153;-76
2022/08/28 04:38:59;;;;;;;13.82;11.07;;;21.10;99.90;;;;;;7391453;19;20142;-76
2022/08/28 04:41:46;;;;;;;18.33;11.38;;;21.00;99.90;;;;;;7392423;19;20484;-76
2022/08/28 04:44:32;;;;;;;13.70;10.63;;;21.00;99.90;;;;;;7392572;19;20193;-76
2022/08/28 04:47:18;;;;;;;15.77;11.40;;;21.00;99.90;;;;;;7391534;19;20131;-76
2022/08/28 04:50:05;;;;;;;14.20;11.30;;;21.00;99.90;;;;;;7392588;19;20145;-75
2022/08/28 04:52:51;;;;;;;15.88;11.35;;;20.90;99.90;;;;;;7394862;19;20177;-76
2022/08/28 04:55:45;;;;;;;14.00;10.90;;;20.70;99.90;;;;;;7392248;19;20619;-76
2022/08/28 04:58:33;;;;;;;12.63;9.95;;;20.80;99.90;;;;;;7390194;19;20138;-76
2022/08/28 05:01:23;;;;;;;15.10;10.93;;;21.00;99.90;;;;;;7391192;19;20130;-76
2022/08/28 05:04:10;;;;;;;13.60;10.82;;;21.00;99.90;;;;;;7392512;19;20145;-75
2022/08/28 05:06:56;;;;;;;12.48;10.32;;;21.00;99.90;;;;;;7397790;19;20142;-76
2022/08/28 05:09:42;;;;;;;15.65;11.30;;;21.10;99.90;;;;;;7395484;19;20139;-77
2022/08/28 05:12:28;;;;;;;16.08;11.45;;;21.00;99.90;;;;;;7390071;19;20172;-75
2022/08/28 05:15:14;;;;;;;14.40;11.10;;;21.00;99.90;;;;;;7391637;19;20154;-77
2022/08/28 05:18:00;;;;;;;15.15;11.45;;;21.00;99.90;;;;;;7393110;19;20233;-76
2022/08/28 05:20:47;;;;;;;15.40;10.98;;;20.90;99.90;;;;;;7388436;19;20460;-76
2022/08/28 05:23:33;;;;;;;16.05;11.05;;;20.80;99.90;;;;;;7389616;19;20148;-76
2022/08/28 05:26:19;;;;;;;15.57;11.20;;;20.80;99.90;;;;;;7386834;19;20154;-75
2022/08/28 05:29:06;;;;;;;14.57;11.38;;;20.90;99.90;;;;;;7387976;19;20139;-76
2022/08/28 05:31:52;;;;;;;12.95;10.27;;;20.90;99.90;;;;;;7388421;19;20142;-75
2022/08/28 05:34:38;;;;;;;13.32;11.18;;;21.00;99.90;;;;;;7386344;19;20497;-76
2022/08/28 05:37:24;;;;;;;14.95;11.48;;;21.00;99.90;;;;;;7390908;19;20138;-76
2022/08/28 05:40:10;;;;;;;16.15;10.93;;;21.00;99.90;;;;;;7387334;19;20138;-75
2022/08/28 05:42:56;;;;;;;17.02;11.77;;;21.00;99.90;;;;;;7387574;19;20134;-76
2022/08/28 05:45:43;;;;;;;12.95;10.73;;;21.10;99.90;;;;;;7387458;19;20604;-76
2022/08/28 05:48:30;;;;;;;19.50;11.35;;;21.00;99.90;;;;;;7386605;19;20134;-76
2022/08/28 05:51:21;;;;;;;14.18;10.85;;;21.00;99.90;;;;;;7388032;19;20169;-76
2022/08/28 05:54:08;;;;;;;14.55;11.68;;;21.00;99.90;;;;;;7381796;19;20127;-75
2022/08/28 05:56:54;;;;;;;15.85;10.70;;;21.00;99.90;;;;;;7392167;19;20146;-76
2022/08/28 05:59:40;;;;;;;13.93;11.00;;;21.10;99.90;;;;;;7387168;19;20134;-75
2022/08/28 06:02:26;;;;;;;13.18;9.85;;;20.90;99.90;;;;;;7389069;19;20633;-75
2022/08/28 06:05:13;;;;;;;13.35;10.48;;;21.00;99.90;;;;;;7388431;19;20135;-76
2022/08/28 06:07:59;;;;;;;13.75;10.32;;;21.00;99.90;;;;;;7388118;19;20131;-75
2022/08/28 06:10:45;;;;;;;12.52;9.73;;;21.00;99.90;;;;;;7385329;19;20160;-76
2022/08/28 06:13:31;;;;;;;14.85;10.75;;;20.90;99.90;;;;;;7387740;19;20155;-75
2022/08/28 06:16:18;;;;;;;12.23;9.43;;;20.90;99.90;;;;;;7386569;19;20165;-75
2022/08/28 06:19:06;;;;;;;18.80;11.10;;;21.00;99.90;;;;;;7385341;19;20496;-76
2022/08/28 06:21:55;;;;;;;11.35;9.50;;;21.10;99.90;;;;;;7389097;19;20171;-76
2022/08/28 06:24:42;;;;;;;10.95;8.73;;;21.00;99.90;;;;;;7386934;19;20138;-76
2022/08/28 06:27:28;;;;;;;14.10;9.63;;;21.10;99.90;;;;;;7384248;19;20316;-76
2022/08/28 06:30:14;;;;;;;10.85;9.13;;;21.00;99.90;;;;;;7386640;19;20154;-76
2022/08/28 06:33:00;;;;;;;12.45;9.50;;;21.00;99.90;;;;;;7384038;19;20166;-76
2022/08/28 06:35:50;;;;;;;9.88;8.35;;;21.10;99.90;;;;;;7387261;19;20145;-75
2022/08/28 06:38:36;;;;;;;10.43;8.25;;;21.10;99.90;;;;;;7386725;19;20156;-77
2022/08/28 06:41:22;;;;;;;10.82;8.55;;;21.10;99.90;;;;;;7387752;19;20139;-76
2022/08/28 06:44:12;;;;;;;10.05;8.27;;;21.10;99.90;;;;;;7385595;19;20146;-75
2022/08/28 06:46:59;;;;;;;13.05;8.50;;;21.10;99.90;;;;;;7386100;19;20143;-76
2022/08/28 06:49:45;;;;;;;11.15;8.45;;;21.10;99.90;;;;;;7386620;19;20135;-76
2022/08/28 06:52:31;;;;;;;12.38;8.23;;;21.10;99.90;;;;;;7385728;19;20656;-76
2022/08/28 06:55:17;;;;;;;9.10;7.90;;;21.10;99.90;;;;;;7386295;19;20206;-75
2022/08/28 06:58:06;;;;;;;13.85;8.07;;;21.10;99.90;;;;;;7388059;19;20138;-76
2022/08/28 07:01:09;;;;;;;10.93;7.82;;;21.20;99.90;;;;;;7383451;19;20155;-76
2022/08/28 07:03:58;;;;;;;12.60;8.25;;;21.20;99.90;;;;;;7382888;19;20138;-77
2022/08/28 07:06:45;;;;;;;9.57;8.20;;;21.20;99.90;;;;;;7384841;19;20145;-76
2022/08/28 07:09:31;;;;;;;11.55;8.25;;;21.30;99.90;;;;;;7383850;19;20139;-75
2022/08/28 07:12:17;;;;;;;10.38;8.20;;;21.30;99.90;;;;;;7381930;19;20131;-76
2022/08/28 07:15:04;;;;;;;9.88;7.90;;;21.30;99.90;;;;;;7384020;19;20139;-76
2022/08/28 07:17:50;;;;;;;11.07;7.93;;;21.30;99.90;;;;;;7386443;19;20202;-76
2022/08/28 07:20:36;;;;;;;10.63;8.27;;;21.20;99.90;;;;;;7383050;19;20164;-76
2022/08/28 07:23:23;;;;;;;11.10;8.15;;;21.30;99.90;;;;;;7380517;19;20580;-75
2022/08/28 07:26:15;;;;;;;9.05;7.85;;;21.30;99.90;;;;;;7382816;19;20130;-75
2022/08/28 07:29:03;;;;;;;9.98;7.82;;;21.30;99.90;;;;;;7383619;19;20867;-76
2022/08/28 07:31:51;;;;;;;10.90;7.57;;;21.30;99.90;;;;;;7378053;19;20143;-75
2022/08/28 07:34:38;;;;;;;10.88;7.68;;;21.30;99.90;;;;;;7385232;19;20135;-80
2022/08/28 07:37:24;;;;;;;11.40;7.05;;;21.40;99.90;;;;;;7382326;19;20981;-79
2022/08/28 07:40:11;;;;;;;10.68;7.90;;;21.40;99.90;;;;;;7382395;19;20134;-80
2022/08/28 07:45:23;;;;;;;13.15;7.63;;;21.50;99.90;;;;;;7383872;19;20150;-75
2022/08/28 07:47:50;;;;;;;8.60;7.47;;;21.50;99.90;;;;;;7387019;19;20202;-73
2022/08/28 07:50:16;;;;;;;9.63;7.05;;;21.50;99.90;;;;;;7384233;19;20156;-74
2022/08/28 07:52:42;;;;;;;13.82;7.82;;;21.50;99.90;;;;;;7387772;19;20146;-73
2022/08/28 07:55:07;;;;;;;11.27;7.32;;;21.50;99.90;;;;;;7388690;19;20133;-73
2022/08/28 07:57:34;;;;;;;8.70;7.57;;;21.40;99.90;;;;;;7388804;19;20545;-72
2022/08/28 08:00:00;;;;;;;12.75;7.70;;;21.50;99.90;;;;;;7384084;19;20138;-73
2022/08/28 08:02:37;;;;;;;9.60;7.38;;;21.50;99.90;;;;;;7388686;19;20230;-73
2022/08/28 08:05:04;;;;;;;14.18;7.88;;;21.40;99.90;;;;;;7388548;19;20135;-72
2022/08/28 08:07:31;;;;;;;8.80;7.90;;;21.50;99.90;;;;;;7395823;19;20155;-73
2022/08/28 08:09:57;;;;;;;10.95;8.10;;;21.60;99.90;;;;;;7395566;19;20139;-72
2022/08/28 08:12:23;;;;;;;8.90;7.78;;;21.50;99.90;;;;;;7394103;19;20163;-74
2022/08/28 08:14:49;;;;;;;11.05;7.57;;;21.60;99.90;;;;;;7394149;19;20150;-76
2022/08/28 08:17:14;;;;;;;11.88;8.10;;;21.60;99.90;;;;;;7395905;19;20131;-74
2022/08/28 08:19:40;;;;;;;11.02;8.40;;;21.70;99.90;;;;;;7395517;19;20146;-73
2022/08/28 08:22:06;;;;;;;14.90;8.23;;;21.70;99.90;;;;;;7392327;19;20627;-72
2022/08/28 08:24:31;;;;;;;11.40;7.95;;;21.80;99.90;;;;;;7395249;19;20150;-74
2022/08/28 08:27:00;;;;;;;10.32;7.85;;;21.70;99.90;;;;;;7396471;19;20138;-74
2022/08/28 08:29:35;;;;;;;11.38;8.52;;;21.80;99.90;;;;;;7395117;19;20622;-74
2022/08/28 08:32:08;;;;;;;9.60;7.85;;;21.80;99.90;;;;;;7393719;19;20134;-72
2022/08/28 08:34:37;;;;;;;11.55;7.97;;;21.80;99.90;;;;;;7336009;19;123438;-73
2022/08/28 08:37:04;;;;;;;11.65;7.90;;;21.80;99.90;;;;;;7391734;19;20142;-74
2022/08/28 08:39:31;;;;;;;11.13;7.70;;;21.80;99.90;;;;;;7391822;19;20781;-74
2022/08/28 08:42:31;;;;;;;10.60;7.80;;;21.80;99.90;;;;;;7393313;19;20154;-73
2022/08/28 08:45:14;;;;;;;17.30;8.07;;;21.80;99.90;;;;;;7395829;19;20119;-73
2022/08/28 08:47:51;;;;;;;8.57;7.53;;;22.00;99.90;;;;;;7394918;19;20142;-74
2022/08/28 08:50:22;;;;;;;9.95;8.10;;;22.00;99.90;;;;;;7392206;19;20142;-73
2022/08/28 08:53:14;;;;;;;11.10;7.47;;;22.00;99.90;;;;;;7395388;19;20134;-72
2022/08/28 08:55:49;;;;;;;13.02;7.93;;;22.10;99.90;;;;;;7394160;19;20618;-73
2022/08/28 08:58:38;;;;;;;10.63;7.15;;;22.10;99.90;;;;;;7391190;19;20475;-71
2022/08/28 09:01:10;;;;;;;9.95;7.22;;;22.20;99.90;;;;;;7394339;19;20198;-78
2022/08/28 09:04:01;;;;;;;9.02;7.30;;;22.30;99.90;;;;;;7393401;19;20173;-75
2022/08/28 09:06:43;;;;;;;8.95;7.25;;;22.40;99.90;;;;;;7395607;19;20142;-72
2022/08/28 09:09:18;;;;;;;12.18;7.15;;;22.40;99.90;;;;;;7392331;19;20126;-73
2022/08/28 09:11:54;;;;;;;9.20;7.40;;;22.20;99.90;;;;;;7393205;19;20160;-73
2022/08/28 09:14:56;;;;;;;10.13;7.55;;;22.30;99.90;;;;;;7394705;19;20134;-74
2022/08/28 09:17:30;;;;;;;10.15;8.23;;;22.30;99.90;;;;;;7391268;19;20158;-75
2022/08/28 09:19:56;;;;;;;8.52;6.97;;;22.50;99.90;;;;;;7383637;19;20154;-73
2022/08/28 09:22:22;;;;;;;10.45;7.45;;;22.60;99.90;;;;;;7387698;19;20140;-74
2022/08/28 09:24:47;;;;;;;10.20;7.40;;;22.70;99.90;;;;;;7390988;19;20604;-73
2022/08/28 09:27:32;;;;;;;9.70;7.32;;;22.70;99.90;;;;;;7392552;19;20490;-74
2022/08/28 09:30:00;;;;;;;12.90;7.80;;;22.90;99.90;;;;;;7391454;19;20134;-76
2022/08/28 09:32:34;;;;;;;7.90;6.40;;;23.00;99.90;;;;;;7392085;19;20652;-75
2022/08/28 09:35:25;;;;;;;10.38;7.25;;;22.90;99.90;;;;;;7394034;19;20147;-73
2022/08/28 09:37:52;;;;;;;9.60;6.65;;;22.90;99.90;;;;;;7395396;19;20929;-71
2022/08/28 09:40:21;;;;;;;9.25;7.22;;;23.00;99.90;;;;;;7391218;19;20162;-74
2022/08/28 09:43:28;;;;;;;8.30;6.40;;;23.10;99.90;;;;;;7389746;19;20546;-73
2022/08/28 09:45:57;;;;;;;8.88;6.57;;;23.20;99.90;;;;;;7392747;19;20138;-74
2022/08/28 09:48:31;;;;;;;10.48;6.00;;;23.30;99.90;;;;;;7394407;19;20149;-77
2022/08/28 09:51:04;;;;;;;11.52;6.90;;;23.40;99.90;;;;;;7392398;19;20149;-72
2022/08/28 09:53:55;;;;;;;9.60;6.45;;;23.40;99.90;;;;;;7393744;19;20134;-75
2022/08/28 09:56:32;;;;;;;6.95;6.18;;;23.30;99.90;;;;;;7392982;19;20158;-74
2022/08/28 09:59:16;;;;;;;9.32;5.45;;;23.30;99.90;;;;;;7392352;19;20151;-73
2022/08/28 10:01:47;;;;;;;7.43;5.93;;;23.30;99.90;;;;;;7390025;19;20138;-73
2022/08/28 10:04:16;;;;;;;8.48;6.30;;;23.30;99.90;;;;;;7389314;19;20185;-73
2022/08/28 10:06:59;;;;;;;9.73;6.65;;;23.30;99.90;;;;;;7390241;19;20481;-73
2022/08/28 10:09:50;;;;;;;8.73;5.88;;;23.20;99.90;;;;;;7392319;19;20185;-73
2022/08/28 10:12:21;;;;;;;12.70;7.88;;;23.20;99.90;;;;;;7392384;19;20150;-73
2022/08/28 10:14:53;;;;;;;7.18;5.57;;;23.20;99.90;;;;;;7391827;19;20127;-74
2022/08/28 10:17:28;;;;;;;6.95;5.32;;;23.20;99.90;;;;;;7391985;19;20150;-73
2022/08/28 10:20:13;;;;;;;7.78;5.63;;;23.30;99.90;;;;;;7389223;19;20134;-73
2022/08/28 10:22:40;;;;;;;8.73;5.53;;;23.40;99.90;;;;;;7388268;19;20596;-72
2022/08/28 10:25:32;;;;;;;8.07;5.90;;;23.40;99.90;;;;;;7392167;19;20137;-73
2022/08/28 10:28:12;;;;;;;7.18;5.70;;;23.30;99.90;;;;;;7389705;19;20151;-72
2022/08/28 10:31:01;;;;;;;8.18;5.30;;;23.40;99.90;;;;;;7389716;19;20150;-72
2022/08/28 10:33:36;;;;;;;9.20;5.63;;;23.60;99.90;;;;;;7388040;19;20150;-73
2022/08/28 10:36:17;;;;;;;7.60;5.05;;;23.70;99.90;;;;;;7393454;19;20126;-72
2022/08/28 10:38:48;;;;;;;7.68;5.35;;;23.90;99.90;;;;;;7391798;19;20146;-73
2022/08/28 10:41:23;;;;;;;7.70;5.18;;;24.00;99.90;;;;;;7391169;19;20198;-71
2022/08/28 10:43:52;;;;;;;7.05;5.30;;;24.00;99.90;;;;;;7387425;19;20178;-73
2022/08/28 10:46:23;;;;;;;6.38;5.75;;;24.00;99.90;;;;;;7390050;19;20574;-73
2022/08/28 10:49:10;;;;;;;7.50;5.60;;;24.00;99.90;;;;;;7388350;19;20142;-70
2022/08/28 10:51:45;;;;;;;6.90;5.20;;;24.10;99.90;;;;;;7392063;19;20127;-71
2022/08/28 10:54:42;;;;;;;6.57;5.00;;;24.00;99.90;;;;;;7390212;19;20233;-71
2022/08/28 10:57:35;;;;;;;6.13;5.30;;;24.00;99.90;;;;;;7392824;19;20147;-74
2022/08/28 11:00:09;;;;;;;4.90;4.20;;;24.00;99.90;;;;;;7389213;19;20141;-76
2022/08/28 11:02:36;;;;;;;8.80;4.80;;;24.00;99.90;;;;;;7387043;19;20153;-78
2022/08/28 11:05:04;;;;;;;5.85;5.03;;;24.00;99.90;;;;;;7393225;19;20146;-79
2022/08/28 11:07:57;;;;;;;6.95;4.93;;;24.10;99.90;;;;;;7390539;19;20154;-78
2022/08/28 11:10:35;;;;;;;6.95;5.35;;;24.30;99.90;;;;;;7389224;19;20634;-76
2022/08/28 11:13:03;;;;;;;5.70;5.10;;;24.30;99.90;;;;;;7388329;19;21599;-76
2022/08/28 11:15:30;;;;;;;6.60;4.97;;;24.40;99.90;;;;;;7390499;19;20158;-77
2022/08/28 11:18:17;;;;;;;7.38;5.50;;;24.40;99.90;;;;;;7387424;19;20155;-75
2022/08/28 11:21:02;;;;;;;6.80;5.05;;;24.40;99.90;;;;;;7391797;19;20146;-77
2022/08/28 11:23:58;;;;;;;5.93;4.70;;;24.40;99.90;;;;;;7391979;19;20265;-75
2022/08/28 11:26:34;;;;;;;5.45;4.88;;;24.30;99.90;;;;;;7390272;19;20540;-77
2022/08/28 11:29:01;;;;;;;5.95;5.00;;;24.20;99.90;;;;;;7390474;19;20178;-76
2022/08/28 11:31:31;;;;;;;8.18;5.53;;;24.20;99.90;;;;;;7389921;19;20169;-76
2022/08/28 11:33:58;;;;;;;6.45;5.18;;;24.20;99.90;;;;;;7389984;19;20631;-78
2022/08/28 11:36:26;;;;;;;8.85;4.90;;;24.20;99.90;;;;;;7391889;19;20135;-79
2022/08/28 11:38:56;;;;;;;7.85;5.55;;;24.30;99.90;;;;;;7390901;19;20501;-78
2022/08/28 11:41:33;;;;;;;8.93;4.85;;;24.40;99.90;;;;;;7399554;19;20139;-78
2022/08/28 11:44:13;;;;;;;4.75;4.20;;;24.40;99.90;;;;;;7395024;19;20182;-77
2022/08/28 11:46:43;;;;;;;5.47;4.50;;;24.30;99.90;;;;;;7400324;19;20146;-77
2022/08/28 11:49:28;;;;;;;4.40;3.95;;;24.40;99.90;;;;;;7398514;19;20157;-77
2022/08/28 11:52:26;;;;;;;9.18;5.10;;;24.50;99.90;;;;;;7398525;19;20221;-76
2022/08/28 11:54:55;;;;;;;5.80;4.50;;;24.50;99.90;;;;;;7394939;19;20158;-77
2022/08/28 11:57:58;;;;;;;6.93;4.45;;;24.60;99.90;;;;;;7396623;19;20506;-76
2022/08/28 12:00:50;;;;;;;7.75;4.50;;;24.70;99.90;;;;;;7394347;19;20241;-76
2022/08/28 12:03:27;;;;;;;5.10;4.53;;;24.70;99.90;;;;;;7396459;19;20138;-76
2022/08/28 12:57:08;;;;;;;6.20;4.13;;;25.30;99.90;;;;;;7377662;19;20149;-79
2022/08/28 12:59:40;;;;;;;4.85;4.05;;;25.20;99.90;;;;;;7394438;19;20131;-79
2022/08/28 13:12:34;;;;;;;4.90;4.40;;;25.40;99.90;;;;;;7371221;19;20164;-75
2022/08/28 13:15:01;;;;;;;4.40;4.00;;;25.40;99.90;;;;;;7391520;19;20138;-76
2022/08/28 13:17:50;;;;;;;5.00;4.50;;;25.50;99.90;;;;;;7396967;19;20234;-77
2022/08/28 13:20:42;;;;;;;5.95;3.90;;;25.60;99.90;;;;;;7393884;19;20142;-76
2022/08/28 13:23:27;;;;;;;6.07;4.15;;;25.60;99.90;;;;;;7393649;19;20161;-77
2022/08/28 13:26:02;;;;;;;3.90;3.60;;;25.60;99.90;;;;;;7393486;19;20131;-78
2022/08/28 13:28:28;;;;;;;5.47;4.10;;;25.70;99.90;;;;;;7394803;19;20162;-77
2022/08/28 14:38:59;;;;;;;6.13;3.50;;;25.90;99.90;;;;;;7394149;19;20127;-86
2022/08/28 14:41:26;;;;;;;4.40;3.63;;;25.90;99.90;;;;;;7393845;19;20614;-83
2022/08/28 14:43:55;;;;;;;6.45;3.92;;;25.90;99.90;;;;;;7393344;19;20210;-82
2022/08/28 14:46:29;;;;;;;4.70;3.80;;;25.80;99.90;;;;;;7393066;19;20130;-83
2022/08/28 14:49:00;;;;;;;3.85;3.53;;;25.70;99.90;;;;;;7395027;19;20149;-82
2022/08/28 14:51:26;;;;;;;6.63;4.10;;;25.60;99.90;;;;;;7393561;19;20149;-83
2022/08/28 14:53:53;;;;;;;5.28;3.83;;;25.50;99.90;;;;;;7392178;19;20134;-83
2022/08/28 14:56:21;;;;;;;5.45;3.47;;;25.50;99.90;;;;;;7390097;19;20161;-83
2022/08/28 14:58:47;;;;;;;5.43;3.58;;;25.70;99.90;;;;;;7391416;19;20150;-82
2022/08/28 15:01:28;;;;;;;4.78;3.42;;;25.70;99.90;;;;;;7393314;19;20143;-83
2022/08/28 15:03:56;;;;;;;4.93;3.63;;;25.70;99.90;;;;;;7392503;19;20170;-83
2022/08/28 15:06:23;;;;;;;4.38;3.67;;;25.70;99.90;;;;;;7392880;19;20157;-82
2022/08/28 15:08:49;;;;;;;4.15;3.53;;;25.70;99.90;;;;;;7391714;19;20150;-83
2022/08/28 15:11:18;;;;;;;5.20;4.13;;;25.70;99.90;;;;;;7392077;19;20126;-84
2022/08/28 15:13:45;;;;;;;6.68;4.50;;;25.70;99.90;;;;;;7394462;19;20137;-83
2022/08/28 15:16:17;;;;;;;7.18;4.20;;;25.80;99.90;;;;;;7399823;19;20175;-80
2022/08/28 15:18:44;;;;;;;4.18;3.45;;;25.80;99.90;;;;;;7400333;19;20212;-80
2022/08/28 15:21:25;;;;;;;4.85;4.00;;;25.90;99.90;;;;;;7400060;19;20139;-84
2022/08/28 15:23:52;;;;;;;4.45;3.63;;;25.90;99.90;;;;;;7398880;19;20702;-84
2022/08/28 15:26:21;;;;;;;5.05;3.65;;;25.80;99.90;;;;;;7399386;19;20142;-82
2022/08/28 15:28:47;;;;;;;4.90;3.45;;;25.70;99.90;;;;;;7397581;19;20143;-82
2022/08/28 15:31:14;;;;;;;4.30;3.22;;;25.70;99.90;;;;;;7398942;19;20142;-79
2022/08/28 15:33:41;;;;;;;3.40;3.10;;;25.60;99.90;;;;;;7399585;19;20147;-83
2022/08/28 15:36:07;;;;;;;4.13;3.67;;;25.60;99.90;;;;;;7399575;19;20153;-81
2022/08/28 15:41:22;;;;;;;4.30;3.40;;;25.60;99.90;;;;;;7394529;19;20131;-82
2022/08/28 15:41:23;;;;;;;3.85;3.33;;;25.70;99.90;;;;;;7396600;19;20146;-83
2022/08/28 15:43:53;;;;;;;5.55;3.67;;;25.70;99.90;;;;;;7397949;19;20135;-80
2022/08/28 15:46:20;;;;;;;4.47;3.58;;;25.60;99.90;;;;;;7397803;19;20357;-81